createdAt,value
2023-05-13T00:00:45.750Z,12.70
2023-05-13T00:03:13.123Z,12.70
2023-05-13T00:05:40.893Z,12.70
2023-05-13T00:08:08.454Z,12.80
2023-05-13T00:10:36.529Z,12.80
2023-05-13T00:13:03.856Z,12.70
2023-05-13T00:15:31.565Z,12.60
2023-05-13T00:17:58.840Z,12.50
2023-05-13T00:20:26.262Z,12.50
2023-05-13T00:22:53.531Z,12.50
2023-05-13T00:25:20.776Z,12.40
2023-05-13T00:27:48.291Z,12.30
2023-05-13T00:30:15.583Z,12.20
2023-05-13T00:32:42.994Z,12.00
2023-05-13T00:35:10.709Z,11.90
2023-05-13T00:37:38.059Z,11.70
2023-05-13T00:40:05.887Z,11.50
2023-05-13T00:42:33.246Z,11.40
2023-05-13T00:45:00.738Z,11.40
2023-05-13T00:47:28.845Z,11.40
2023-05-13T00:49:56.452Z,11.40
2023-05-13T00:52:24.032Z,11.40
2023-05-13T00:54:51.508Z,11.40
2023-05-13T00:57:19.170Z,11.30
2023-05-13T00:59:46.429Z,11.30
2023-05-13T01:02:22.430Z,11.30
2023-05-13T01:04:55.709Z,11.30
2023-05-13T01:07:55.181Z,11.30
2023-05-13T01:10:31.461Z,11.20
2023-05-13T01:13:04.391Z,11.20
2023-05-13T01:15:33.326Z,11.20
2023-05-13T01:18:14.126Z,11.20
2023-05-13T01:20:42.999Z,11.10
2023-05-13T01:23:11.909Z,11.10
2023-05-13T01:25:40.383Z,11.00
2023-05-13T01:28:09.206Z,11.00
2023-05-13T01:30:37.240Z,11.00
2023-05-13T01:33:05.412Z,11.00
2023-05-13T01:35:32.892Z,11.00
2023-05-13T01:38:02.055Z,11.00
2023-05-13T01:40:32.394Z,11.00
2023-05-13T01:43:00.954Z,10.90
2023-05-13T01:45:30.282Z,10.90
2023-05-13T01:47:57.689Z,10.80
2023-05-13T01:50:25.502Z,10.80
2023-05-13T01:52:54.408Z,10.70
2023-05-13T01:58:03.342Z,10.80
2023-05-13T02:00:30.803Z,10.70
2023-05-13T02:02:58.591Z,10.60
2023-05-13T02:05:26.808Z,10.60
2023-05-13T02:07:54.260Z,10.50
2023-05-13T02:10:21.933Z,10.50
2023-05-13T02:12:49.501Z,10.50
2023-05-13T02:15:16.757Z,10.50
2023-05-13T02:17:44.059Z,10.50
2023-05-13T02:20:12.893Z,10.50
2023-05-13T02:22:40.177Z,10.50
2023-05-13T02:25:08.251Z,10.50
2023-05-13T02:27:35.783Z,10.50
2023-05-13T02:30:03.232Z,10.50
2023-05-13T02:32:30.843Z,10.50
2023-05-13T02:34:58.460Z,10.50
2023-05-13T02:37:25.761Z,10.50
2023-05-13T02:39:52.990Z,10.50
2023-05-13T02:42:20.253Z,10.50
2023-05-13T02:44:48.828Z,10.50
2023-05-13T02:47:16.413Z,10.50
2023-05-13T02:49:43.704Z,10.50
2023-05-13T02:52:11.196Z,10.50
2023-05-13T02:54:38.411Z,10.50
2023-05-13T02:57:05.999Z,10.50
2023-05-13T02:59:33.940Z,10.40
2023-05-13T03:02:01.308Z,10.40
2023-05-13T03:04:28.562Z,10.40
2023-05-13T03:06:56.123Z,10.40
2023-05-13T03:09:23.511Z,10.40
2023-05-13T03:11:50.881Z,10.30
2023-05-13T03:14:18.210Z,10.40
2023-05-13T03:16:45.611Z,10.40
2023-05-13T03:19:13.106Z,10.40
2023-05-13T03:21:40.572Z,10.40
2023-05-13T03:24:08.307Z,10.40
2023-05-13T03:26:36.222Z,10.40
2023-05-13T03:29:03.666Z,10.40
2023-05-13T03:31:31.102Z,10.40
2023-05-13T03:33:58.422Z,10.40
2023-05-13T03:36:25.717Z,10.50
2023-05-13T03:38:53.017Z,10.50
2023-05-13T03:41:20.325Z,10.50
2023-05-13T03:43:47.692Z,10.50
2023-05-13T03:46:15.263Z,10.50
2023-05-13T03:48:42.600Z,10.60
2023-05-13T03:51:10.585Z,10.60
2023-05-13T03:53:37.897Z,10.70
2023-05-13T03:56:05.672Z,10.80
2023-05-13T03:58:32.974Z,10.90
2023-05-13T04:01:00.267Z,10.90
2023-05-13T04:03:27.503Z,11.10
2023-05-13T04:05:54.874Z,11.10
2023-05-13T04:08:22.188Z,11.10
2023-05-13T04:10:49.520Z,11.10
2023-05-13T04:13:16.979Z,11.10
2023-05-13T04:15:44.571Z,11.10
2023-05-13T04:18:11.880Z,11.10
2023-05-13T04:20:39.968Z,11.10
2023-05-13T04:23:08.167Z,11.20
2023-05-13T04:25:37.625Z,11.20
2023-05-13T04:28:05.298Z,11.20
2023-05-13T04:30:32.736Z,11.20
2023-05-13T04:33:00.431Z,11.20
2023-05-13T04:35:27.707Z,11.20
2023-05-13T04:37:55.143Z,11.20
2023-05-13T04:40:23.803Z,11.30
2023-05-13T04:42:55.296Z,11.30
2023-05-13T04:45:22.834Z,11.20
2023-05-13T04:47:50.208Z,11.30
2023-05-13T04:50:17.767Z,11.30
2023-05-13T04:52:46.539Z,11.30
2023-05-13T04:55:13.985Z,11.30
2023-05-13T04:57:41.408Z,11.20
2023-05-13T05:00:09.751Z,11.20
2023-05-13T05:02:37.037Z,11.20
2023-05-13T05:05:04.658Z,11.20
2023-05-13T05:07:31.887Z,11.00
2023-05-13T05:09:59.252Z,11.00
2023-05-13T05:12:26.841Z,11.00
2023-05-13T05:14:54.176Z,11.00
2023-05-13T05:17:21.513Z,11.00
2023-05-13T05:19:48.891Z,11.10
2023-05-13T05:22:16.178Z,11.10
2023-05-13T05:24:43.778Z,11.20
2023-05-13T05:27:10.988Z,11.30
2023-05-13T05:29:38.201Z,11.30
2023-05-13T05:32:06.038Z,11.40
2023-05-13T05:34:33.503Z,11.40
2023-05-13T05:37:00.751Z,11.50
2023-05-13T05:39:28.204Z,11.60
2023-05-13T05:42:01.325Z,11.50
2023-05-13T05:44:28.691Z,11.60
2023-05-13T05:46:56.006Z,11.60
2023-05-13T05:49:23.514Z,11.70
2023-05-13T05:51:51.356Z,12.00
2023-05-13T05:54:18.616Z,12.20
2023-05-13T05:56:45.905Z,12.50
2023-05-13T05:59:13.768Z,12.80
2023-05-13T06:01:41.386Z,13.10
2023-05-13T06:04:08.697Z,13.30
2023-05-13T06:06:37.546Z,13.50
2023-05-13T06:09:04.831Z,13.80
2023-05-13T06:11:32.090Z,14.20
2023-05-13T06:13:59.766Z,14.60
2023-05-13T06:16:27.023Z,15.00
2023-05-13T06:18:54.622Z,15.30
2023-05-13T06:21:22.138Z,15.60
2023-05-13T06:23:49.601Z,15.90
2023-05-13T06:26:17.337Z,16.20
2023-05-13T06:28:44.617Z,16.40
2023-05-13T06:31:12.513Z,16.60
2023-05-13T06:33:39.920Z,16.90
2023-05-13T06:36:07.588Z,17.20
2023-05-13T06:38:35.236Z,17.40
2023-05-13T06:41:02.823Z,17.60
2023-05-13T06:43:30.175Z,17.90
2023-05-13T06:45:57.623Z,18.20
2023-05-13T06:48:25.090Z,18.50
2023-05-13T06:50:52.681Z,18.70
2023-05-13T06:53:20.033Z,18.80
2023-05-13T06:55:48.206Z,19.10
2023-05-13T06:58:15.656Z,19.20
2023-05-13T07:00:43.432Z,19.10
2023-05-13T07:03:10.866Z,18.90
2023-05-13T07:05:38.593Z,18.90
2023-05-13T07:08:07.742Z,18.90
2023-05-13T07:10:36.601Z,19.10
2023-05-13T07:13:04.319Z,19.10
2023-05-13T07:15:31.669Z,19.00
2023-05-13T07:17:58.966Z,18.90
2023-05-13T07:20:27.342Z,19.00
2023-05-13T07:22:54.676Z,19.10
2023-05-13T07:25:21.989Z,19.30
2023-05-13T07:27:49.290Z,19.20
2023-05-13T07:30:16.618Z,19.00
2023-05-13T07:32:44.208Z,19.10
2023-05-13T07:35:12.326Z,19.10
2023-05-13T07:37:39.658Z,19.20
2023-05-13T07:40:11.710Z,19.10
2023-05-13T07:42:44.348Z,18.80
2023-05-13T07:45:11.978Z,18.70
2023-05-13T07:47:40.648Z,18.80
2023-05-13T07:50:09.478Z,18.90
2023-05-13T07:52:37.630Z,18.70
2023-05-13T07:55:06.105Z,18.60
2023-05-13T07:57:34.917Z,18.40
2023-05-13T08:00:02.676Z,18.40
2023-05-13T08:02:35.184Z,18.20
2023-05-13T08:05:02.882Z,17.90
2023-05-13T08:07:30.530Z,17.50
2023-05-13T08:09:57.785Z,17.50
2023-05-13T08:12:25.331Z,17.60
2023-05-13T08:14:52.773Z,17.60
2023-05-13T08:17:20.279Z,17.60
2023-05-13T08:19:47.729Z,17.50
2023-05-13T08:22:15.648Z,17.70
2023-05-13T08:24:43.443Z,18.00
2023-05-13T08:27:10.911Z,18.20
2023-05-13T08:29:38.286Z,18.20
2023-05-13T08:32:06.741Z,18.40
2023-05-13T08:34:34.308Z,18.70
2023-05-13T08:37:01.636Z,18.80
2023-05-13T08:39:29.630Z,18.70
2023-05-13T08:42:02.122Z,18.60
2023-05-13T08:44:32.641Z,18.80
2023-05-13T08:47:12.004Z,19.10
2023-05-13T08:49:39.924Z,19.50
2023-05-13T08:52:09.074Z,19.90
2023-05-13T08:54:38.743Z,20.20
2023-05-13T08:57:06.925Z,20.30
2023-05-13T08:59:34.195Z,20.00
2023-05-13T09:02:04.760Z,19.60
2023-05-13T09:04:34.717Z,19.80
2023-05-13T09:07:03.186Z,20.20
2023-05-13T09:09:30.653Z,20.40
2023-05-13T09:11:57.946Z,20.20
2023-05-13T09:14:32.384Z,20.30
2023-05-13T09:17:01.379Z,20.30
2023-05-13T09:19:28.992Z,20.40
2023-05-13T09:21:57.873Z,20.90
2023-05-13T09:24:25.594Z,21.20
2023-05-13T09:26:53.042Z,21.70
2023-05-13T09:29:23.141Z,21.80
2023-05-13T09:31:51.687Z,21.60
2023-05-13T09:34:33.154Z,21.40
2023-05-13T09:37:03.672Z,21.20
2023-05-13T09:39:33.786Z,20.90
2023-05-13T09:42:04.530Z,20.50
2023-05-13T09:44:33.306Z,20.30
2023-05-13T09:47:02.819Z,20.10
2023-05-13T09:49:32.211Z,20.00
2023-05-13T09:51:59.858Z,20.10
2023-05-13T09:54:29.771Z,20.20
2023-05-13T09:57:01.744Z,20.40
2023-05-13T09:59:32.573Z,20.40
2023-05-13T10:02:02.071Z,20.40
2023-05-13T10:04:29.784Z,20.30
2023-05-13T10:06:58.836Z,20.40
2023-05-13T10:09:29.251Z,20.50
2023-05-13T10:11:57.853Z,20.50
2023-05-13T10:14:25.624Z,20.30
2023-05-13T10:16:53.219Z,20.10
2023-05-13T10:19:21.580Z,19.70
2023-05-13T10:21:50.795Z,19.60
2023-05-13T10:24:18.488Z,19.60
2023-05-13T10:26:46.621Z,19.50
2023-05-13T10:29:14.607Z,19.30
2023-05-13T10:31:42.899Z,19.20
2023-05-13T10:34:11.615Z,19.20
2023-05-13T10:36:53.994Z,19.10
2023-05-13T10:39:33.656Z,19.10
2023-05-13T10:42:26.093Z,19.20
2023-05-13T10:44:58.138Z,19.10
2023-05-13T10:47:27.416Z,19.00
2023-05-13T10:49:54.760Z,18.90
2023-05-13T10:52:22.308Z,18.90
2023-05-13T10:55:03.442Z,18.80
2023-05-13T10:57:37.873Z,18.60
2023-05-13T11:00:19.463Z,18.60
2023-05-13T11:02:47.030Z,18.80
2023-05-13T11:05:23.902Z,18.90
2023-05-13T11:07:58.246Z,18.70
2023-05-13T11:10:33.321Z,18.70
2023-05-13T11:13:22.920Z,18.70
2023-05-13T11:15:52.257Z,18.70
2023-05-13T11:18:21.191Z,18.70
2023-05-13T11:20:53.790Z,18.70
2023-05-13T11:23:21.802Z,18.80
2023-05-13T11:26:12.424Z,19.00
2023-05-13T11:29:06.629Z,19.00
2023-05-13T11:31:53.485Z,19.00
2023-05-13T11:34:21.390Z,19.00
2023-05-13T11:37:13.010Z,19.10
2023-05-13T11:39:41.878Z,19.10
2023-05-13T11:42:11.519Z,19.00
2023-05-13T11:44:47.158Z,18.90
2023-05-13T11:47:14.966Z,18.90
2023-05-13T11:49:44.338Z,18.80
2023-05-13T11:52:17.253Z,18.70
2023-05-13T11:54:49.847Z,18.70
2023-05-13T11:57:29.677Z,18.70
2023-05-13T12:00:04.130Z,18.60
2023-05-13T12:02:37.873Z,18.60
2023-05-13T12:05:08.711Z,18.60
2023-05-13T12:07:37.746Z,18.70
2023-05-13T12:10:06.720Z,18.70
2023-05-13T12:12:36.820Z,18.70
2023-05-13T12:15:06.980Z,18.90
2023-05-13T12:17:34.891Z,18.90
2023-05-13T12:20:13.366Z,19.00
2023-05-13T12:22:43.923Z,19.20
2023-05-13T12:25:36.866Z,19.40
2023-05-13T12:28:24.848Z,19.50
2023-05-13T12:31:04.429Z,19.50
2023-05-13T12:33:43.168Z,19.30
2023-05-13T12:36:33.980Z,18.90
2023-05-13T12:39:04.670Z,19.00
2023-05-13T12:41:36.065Z,19.10
2023-05-13T12:44:04.948Z,19.30
2023-05-13T12:46:33.106Z,19.70
2023-05-13T12:49:02.334Z,20.30
2023-05-13T12:51:30.798Z,20.80
2023-05-13T12:53:59.011Z,20.90
2023-05-13T12:56:26.841Z,20.90
2023-05-13T12:58:54.707Z,20.90
2023-05-13T13:01:22.552Z,20.70
2023-05-13T13:03:50.220Z,20.40
2023-05-13T13:06:18.047Z,20.20
2023-05-13T13:08:46.073Z,20.30
2023-05-13T13:11:19.108Z,20.40
2023-05-13T13:13:47.648Z,20.60
2023-05-13T13:16:15.492Z,20.70
2023-05-13T13:18:43.552Z,20.70
2023-05-13T13:21:11.630Z,20.70
2023-05-13T13:23:38.973Z,20.70
2023-05-13T13:26:06.449Z,21.20
2023-05-13T13:28:33.809Z,21.50
2023-05-13T13:31:01.239Z,21.50
2023-05-13T13:33:28.595Z,21.40
2023-05-13T13:35:56.094Z,21.30
2023-05-13T13:38:23.534Z,21.50
2023-05-13T13:40:51.160Z,21.60
2023-05-13T13:43:18.586Z,21.40
2023-05-13T13:45:45.947Z,21.20
2023-05-13T13:48:14.071Z,21.00
2023-05-13T13:50:41.753Z,20.80
2023-05-13T13:53:09.030Z,21.10
2023-05-13T13:55:36.425Z,21.00
2023-05-13T13:58:04.132Z,20.90
2023-05-13T14:00:31.727Z,21.00
2023-05-13T14:02:59.178Z,21.10
2023-05-13T14:05:26.741Z,21.00
2023-05-13T14:07:55.937Z,20.90
2023-05-13T14:10:23.477Z,20.90
2023-05-13T14:12:50.923Z,20.70
2023-05-13T14:15:18.383Z,20.60
2023-05-13T14:17:45.746Z,20.50
2023-05-13T14:20:15.849Z,20.50
2023-05-13T14:22:43.717Z,20.40
2023-05-13T14:25:11.117Z,20.30
2023-05-13T14:27:38.436Z,20.40
2023-05-13T14:30:07.246Z,20.50
2023-05-13T14:32:35.234Z,20.40
2023-05-13T14:35:02.550Z,20.20
2023-05-13T14:37:30.234Z,20.10
2023-05-13T14:39:57.532Z,20.10
2023-05-13T14:42:25.019Z,20.10
2023-05-13T14:44:52.447Z,20.00
2023-05-13T14:47:19.893Z,20.00
2023-05-13T14:49:47.740Z,20.00
2023-05-13T14:52:16.047Z,20.00
2023-05-13T14:54:43.366Z,19.90
2023-05-13T14:57:11.639Z,19.80
2023-05-13T14:59:40.580Z,19.80
2023-05-13T15:02:08.586Z,19.80
2023-05-13T15:04:36.781Z,19.80
2023-05-13T15:07:04.228Z,19.80
2023-05-13T15:09:31.994Z,19.70
2023-05-13T15:11:59.536Z,19.70
2023-05-13T15:14:27.044Z,19.70
2023-05-13T15:16:54.636Z,19.70
2023-05-13T15:19:22.088Z,19.70
2023-05-13T15:21:49.390Z,19.70
2023-05-13T15:24:16.770Z,19.70
2023-05-13T15:26:45.149Z,19.80
2023-05-13T15:29:12.485Z,19.80
2023-05-13T15:31:39.831Z,19.80
2023-05-13T15:34:07.802Z,19.90
2023-05-13T15:36:36.060Z,19.90
2023-05-13T15:39:03.336Z,19.80
2023-05-13T15:41:30.665Z,19.70
2023-05-13T15:43:58.005Z,19.60
2023-05-13T15:46:26.049Z,19.50
2023-05-13T15:48:57.048Z,19.40
2023-05-13T15:51:24.332Z,19.30
2023-05-13T15:53:53.099Z,19.30
2023-05-13T15:56:26.796Z,19.20
2023-05-13T15:58:56.013Z,19.20
2023-05-13T16:01:23.345Z,19.10
2023-05-13T16:03:50.806Z,19.10
2023-05-13T16:06:18.073Z,19.20
2023-05-13T16:08:45.396Z,19.10
2023-05-13T16:11:13.421Z,19.20
2023-05-13T16:13:41.101Z,19.10
2023-05-13T16:16:08.958Z,19.10
2023-05-13T16:18:36.658Z,19.00
2023-05-13T16:21:04.089Z,19.00
2023-05-13T16:23:31.457Z,19.00
2023-05-13T16:26:01.489Z,19.00
2023-05-13T16:28:29.238Z,19.00
2023-05-13T16:30:58.540Z,19.00
2023-05-13T16:33:27.177Z,19.00
2023-05-13T16:35:54.675Z,19.00
2023-05-13T16:38:22.170Z,19.00
2023-05-13T16:40:49.807Z,19.00
2023-05-13T16:43:17.052Z,19.00
2023-05-13T16:45:44.454Z,19.00
2023-05-13T16:48:12.689Z,18.90
2023-05-13T16:50:40.185Z,18.90
2023-05-13T16:53:07.737Z,18.80
2023-05-13T16:55:35.615Z,18.80
2023-05-13T16:58:03.287Z,18.80
2023-05-13T17:00:30.603Z,18.70
2023-05-13T17:02:58.079Z,18.70
2023-05-13T17:05:25.648Z,18.70
2023-05-13T17:07:52.965Z,18.60
2023-05-13T17:10:20.679Z,18.60
2023-05-13T17:12:47.984Z,18.50
2023-05-13T17:15:15.486Z,18.50
2023-05-13T17:17:42.800Z,18.40
2023-05-13T17:20:11.053Z,18.30
2023-05-13T17:22:38.407Z,18.30
2023-05-13T17:25:06.185Z,18.30
2023-05-13T17:27:33.434Z,18.20
2023-05-13T17:30:00.817Z,18.20
2023-05-13T17:32:28.351Z,18.20
2023-05-13T17:34:55.797Z,18.10
2023-05-13T17:37:23.086Z,18.10
2023-05-13T17:39:50.736Z,18.00
2023-05-13T17:42:18.320Z,17.90
2023-05-13T17:44:45.546Z,17.90
2023-05-13T17:47:12.925Z,17.90
2023-05-13T17:49:40.175Z,17.90
2023-05-13T17:52:07.626Z,17.80
2023-05-13T17:54:35.205Z,17.70
2023-05-13T17:57:02.509Z,17.70
2023-05-13T17:59:29.985Z,17.60
2023-05-13T18:01:57.564Z,17.50
2023-05-13T18:04:30.745Z,17.50
2023-05-13T18:06:58.099Z,17.40
2023-05-13T18:09:25.348Z,17.40
2023-05-13T18:11:52.703Z,17.40
2023-05-13T18:14:23.017Z,17.30
2023-05-13T18:16:50.454Z,17.30
2023-05-13T18:19:17.825Z,17.20
2023-05-13T18:21:46.850Z,17.10
2023-05-13T18:24:15.241Z,17.10
2023-05-13T18:26:42.637Z,17.00
2023-05-13T18:29:12.791Z,17.00
2023-05-13T18:31:40.165Z,17.00
2023-05-13T18:34:07.795Z,17.00
2023-05-13T18:36:35.589Z,16.90
2023-05-13T18:39:03.106Z,16.80
2023-05-13T18:41:30.976Z,16.80
2023-05-13T18:43:58.396Z,16.70
2023-05-13T18:46:26.346Z,16.60
2023-05-13T18:48:54.412Z,16.50
2023-05-13T18:51:21.716Z,16.50
2023-05-13T18:53:49.070Z,16.40
2023-05-13T18:56:16.958Z,16.40
2023-05-13T18:58:47.535Z,16.30
2023-05-13T19:01:16.016Z,16.30
2023-05-13T19:03:43.496Z,16.20
2023-05-13T19:06:11.263Z,16.10
2023-05-13T19:08:38.634Z,16.10
2023-05-13T19:11:06.089Z,16.00
2023-05-13T19:13:46.009Z,16.00
2023-05-13T19:16:15.795Z,15.90
2023-05-13T19:18:43.447Z,15.80
2023-05-13T19:21:11.356Z,15.80
2023-05-13T19:23:39.369Z,15.70
2023-05-13T19:26:06.712Z,15.60
2023-05-13T19:28:38.861Z,15.50
2023-05-13T19:31:06.553Z,15.50
2023-05-13T19:33:34.588Z,15.40
2023-05-13T19:36:02.096Z,15.40
2023-05-13T19:38:29.537Z,15.30
2023-05-13T19:40:56.892Z,15.30
2023-05-13T19:43:25.241Z,15.20
2023-05-13T19:45:55.694Z,15.10
2023-05-13T19:48:23.047Z,15.10
2023-05-13T19:50:53.587Z,15.00
2023-05-13T19:53:22.204Z,15.00
2023-05-13T19:55:49.523Z,14.90
2023-05-13T19:58:18.082Z,14.80
2023-05-13T20:00:45.656Z,14.70
2023-05-13T20:03:13.683Z,14.60
2023-05-13T20:05:41.597Z,14.50
2023-05-13T20:08:09.140Z,14.40
2023-05-13T20:10:37.073Z,14.40
2023-05-13T20:13:05.185Z,14.30
2023-05-13T20:15:32.935Z,14.30
2023-05-13T20:18:00.265Z,14.30
2023-05-13T20:20:28.593Z,14.20
2023-05-13T20:22:56.207Z,14.20
2023-05-13T20:25:23.549Z,14.10
2023-05-13T20:27:51.362Z,14.10
2023-05-13T20:30:22.216Z,14.00
2023-05-13T20:32:49.781Z,14.00
2023-05-13T20:35:17.541Z,13.90
2023-05-13T20:37:45.251Z,13.90
2023-05-13T20:40:12.988Z,13.90
2023-05-13T20:42:40.522Z,13.80
2023-05-13T20:45:08.946Z,13.80
2023-05-13T20:47:37.056Z,13.70
2023-05-13T20:50:04.519Z,13.60
2023-05-13T20:52:31.985Z,13.50
2023-05-13T20:54:59.867Z,13.50
2023-05-13T20:57:27.155Z,13.50
2023-05-13T20:59:55.059Z,13.40
2023-05-13T21:02:22.540Z,13.30
2023-05-13T21:04:49.821Z,13.30
2023-05-13T21:07:18.014Z,13.20
2023-05-13T21:09:45.680Z,13.10
2023-05-13T21:12:12.932Z,13.00
2023-05-13T21:14:40.795Z,12.90
2023-05-13T21:17:09.041Z,12.80
2023-05-13T21:19:36.790Z,12.60
2023-05-13T21:22:06.669Z,12.50
2023-05-13T21:24:33.917Z,12.40
2023-05-13T21:27:01.138Z,12.30
2023-05-13T21:29:30.483Z,12.20
2023-05-13T21:31:58.042Z,12.10
2023-05-13T21:34:25.535Z,12.00
2023-05-13T21:36:53.447Z,11.90
2023-05-13T21:39:20.757Z,11.80
2023-05-13T21:41:48.136Z,11.70
2023-05-13T21:44:15.373Z,11.70
2023-05-13T21:46:42.795Z,11.60
2023-05-13T21:49:10.630Z,11.50
2023-05-13T21:51:37.975Z,11.40
2023-05-13T21:54:05.309Z,11.40
2023-05-13T21:56:32.669Z,11.30
2023-05-13T21:59:00.230Z,11.30
2023-05-13T22:01:27.933Z,11.20
2023-05-13T22:03:56.185Z,11.10
2023-05-13T22:06:24.101Z,10.90
2023-05-13T22:08:51.314Z,10.90
2023-05-13T22:11:18.851Z,10.80
2023-05-13T22:13:46.289Z,10.80
2023-05-13T22:16:15.641Z,10.70
2023-05-13T22:18:43.697Z,10.70
2023-05-13T22:21:11.202Z,10.60
2023-05-13T22:23:38.514Z,10.60
2023-05-13T22:26:05.901Z,10.50
2023-05-13T22:28:33.236Z,10.40
2023-05-13T22:31:00.651Z,10.40
2023-05-13T22:33:28.214Z,10.30
2023-05-13T22:35:55.527Z,10.30
2023-05-13T22:38:23.055Z,10.30
2023-05-13T22:40:50.358Z,10.20
2023-05-13T22:43:17.584Z,10.20
2023-05-13T22:45:45.251Z,10.10
2023-05-13T22:48:12.648Z,10.10
2023-05-13T22:50:41.600Z,10.00
2023-05-13T22:53:08.930Z,10.00
2023-05-13T22:55:36.829Z,10.00
2023-05-13T22:58:04.130Z,9.90
2023-05-13T23:00:31.487Z,9.90
2023-05-13T23:03:01.547Z,9.80
2023-05-13T23:05:28.908Z,9.80
2023-05-13T23:07:56.325Z,9.70
2023-05-13T23:10:24.021Z,9.70
2023-05-13T23:12:51.437Z,9.60
2023-05-13T23:15:18.975Z,9.50
2023-05-13T23:17:46.459Z,9.50
2023-05-13T23:20:13.961Z,9.40
2023-05-13T23:22:41.296Z,9.40
2023-05-13T23:25:09.883Z,9.30
2023-05-13T23:27:37.296Z,9.20
2023-05-13T23:30:05.217Z,9.20
2023-05-13T23:32:32.651Z,9.10
2023-05-13T23:34:59.962Z,9.10
2023-05-13T23:37:27.254Z,9.10
2023-05-13T23:39:54.513Z,9.00
2023-05-13T23:42:22.097Z,9.00
2023-05-13T23:44:49.424Z,8.90
2023-05-13T23:47:17.067Z,9.00
2023-05-13T23:49:44.431Z,9.00
2023-05-13T23:52:11.693Z,8.90
2023-05-13T23:54:39.176Z,8.90
2023-05-13T23:57:06.509Z,8.90
2023-05-13T23:59:33.911Z,8.90
